PWSweather.com
Personal Weather Stations
Station Observations
CAMPIGIANO
Campi Bisenzio, FirenzeIT

Campi BisenzioFirenzeIT

Lat: 43.8175012, Lon: 11.1391085

Elevation: 106

Station Type: LaCrosse WS2350

Latest ConditionsUpdated 8:15:02 AM GMT+01:01 Saturday, May 23, 2015
Currently Today's Max Today's Min Today's Average
Temperature 58.2°F14.6°C 58.2°F14.6°C 54.1°F12.3°C 55.3°F12.9°C
Dew Point 54.7°F12.6°C 54.7°F12.6°C 51.0°F10.6°C 52.0°F11.1°C
Winds Calm Calm Calm ENECalm ENE - Calm Calm
Wind Gusts -- -- - -
Humidity 88% 90% 85% 89%
Pressure 29.79 in1008.8 mb 29.82 in1009.8 mb 29.77 in1008.1 mb -
Precipitation - 0.04 in1.0 mm - -
Hour Temp Dew Point Humidity Winds Wind Gusts Pressure Precip Precip Rate Daily Precip Total
08:15 AM 58.2°F14.6°C 54.7°F12.6°C 88% Calm Calm -- 29.79 in1008.8 mb - 0.00 in0.0 mm 0.04 in1.0 mm
08:00 AM 57.9°F14.4°C 54.7°F12.6°C 89% Calm Calm -- 29.78 in1008.5 mb - 0.00 in0.0 mm 0.04 in1.0 mm
07:45 AM 57.5°F14.2°C 54.3°F12.4°C 89% Calm Calm -- 29.78 in1008.5 mb - 0.00 in0.0 mm 0.04 in1.0 mm
07:30 AM 57.1°F13.9°C 54.2°F12.3°C 90% Calm Calm -- 29.79 in1008.8 mb - 0.00 in0.0 mm 0.04 in1.0 mm
07:15 AM 56.8°F13.8°C 53.9°F12.2°C 90% Calm Calm -- 29.79 in1008.8 mb - 0.00 in0.0 mm 0.04 in1.0 mm
07:00 AM 55.9°F13.3°C 53.0°F11.7°C 90% Calm Calm -- 29.79 in1008.8 mb - 0.00 in0.0 mm 0.04 in1.0 mm
06:45 AM 55.6°F13.1°C 52.7°F11.5°C 90% Calm Calm -- 29.79 in1008.8 mb - 0.00 in0.0 mm 0.04 in1.0 mm
06:30 AM 55.2°F12.9°C 52.3°F11.3°C 90% Calm Calm -- 29.78 in1008.5 mb - 0.00 in0.0 mm 0.04 in1.0 mm
06:15 AM 55.1°F12.8°C 52.2°F11.2°C 90% Calm Calm -- 29.78 in1008.5 mb - 0.00 in0.0 mm 0.04 in1.0 mm
06:00 AM 55.0°F12.8°C 52.2°F11.2°C 90% Calm Calm -- 29.78 in1008.5 mb - 0.00 in0.0 mm 0.04 in1.0 mm
05:45 AM 55.0°F12.8°C 52.2°F11.2°C 90% Calm Calm -- 29.78 in1008.5 mb - 0.00 in0.0 mm 0.04 in1.0 mm
05:30 AM 54.9°F12.7°C 52.0°F11.1°C 90% Calm Calm -- 29.78 in1008.5 mb - 0.00 in0.0 mm 0.04 in1.0 mm
05:15 AM 54.5°F12.5°C 51.6°F10.9°C 90% Calm Calm -- 29.78 in1008.5 mb - 0.00 in0.0 mm 0.04 in1.0 mm
05:00 AM 54.3°F12.4°C 51.4°F10.8°C 90% Calm Calm -- 29.78 in1008.5 mb - 0.00 in0.0 mm 0.04 in1.0 mm
04:45 AM 54.5°F12.5°C 51.6°F10.9°C 90% Calm Calm -- 29.77 in1008.1 mb - 0.00 in0.0 mm 0.04 in1.0 mm
04:30 AM 54.5°F12.5°C 51.6°F10.9°C 90% Calm Calm -- 29.78 in1008.5 mb - 0.00 in0.0 mm 0.04 in1.0 mm
04:15 AM 54.5°F12.5°C 51.6°F10.9°C 90% Calm Calm -- 29.79 in1008.8 mb - 0.00 in0.0 mm 0.04 in1.0 mm
04:00 AM 54.4°F12.4°C 51.2°F10.7°C 89% Calm Calm -- 29.78 in1008.5 mb - 0.00 in0.0 mm 0.04 in1.0 mm
03:45 AM 54.3°F12.4°C 51.1°F10.6°C 89% Calm Calm -- 29.78 in1008.5 mb - 0.00 in0.0 mm 0.04 in1.0 mm
03:30 AM 54.3°F12.4°C 51.1°F10.6°C 89% Calm Calm -- 29.79 in1008.8 mb - 0.00 in0.0 mm 0.04 in1.0 mm
03:15 AM 54.1°F12.3°C 51.0°F10.6°C 89% Calm Calm -- 29.79 in1008.8 mb - 0.00 in0.0 mm 0.04 in1.0 mm
03:00 AM 54.3°F12.4°C 51.1°F10.6°C 89% Calm Calm -- 29.79 in1008.8 mb - 0.00 in0.0 mm 0.04 in1.0 mm
02:45 AM 54.5°F12.5°C 51.3°F10.7°C 89% Calm Calm -- 29.80 in1009.1 mb - 0.00 in0.0 mm 0.04 in1.0 mm
02:30 AM 54.7°F12.6°C 51.2°F10.7°C 88% Calm Calm -- 29.80 in1009.1 mb - 0.00 in0.0 mm 0.04 in1.0 mm
02:15 AM 54.9°F12.7°C 51.4°F10.8°C 88% Calm Calm -- 29.80 in1009.1 mb - 0.00 in0.0 mm 0.04 in1.0 mm
02:00 AM 54.9°F12.7°C 51.4°F10.8°C 88% Calm Calm -- 29.80 in1009.1 mb - 0.00 in0.0 mm 0.04 in1.0 mm
01:45 AM 55.0°F12.8°C 51.2°F10.7°C 87% Calm Calm -- 29.80 in1009.1 mb - 0.00 in0.0 mm 0.04 in1.0 mm
01:30 AM 55.0°F12.8°C 51.5°F10.8°C 88% Calm Calm -- 29.80 in1009.1 mb - 0.00 in0.0 mm 0.04 in1.0 mm
01:15 AM 55.2°F12.9°C 51.4°F10.8°C 87% Calm Calm -- 29.80 in1009.1 mb - 0.02 in0.5 mm 0.04 in1.0 mm
01:00 AM 55.2°F12.9°C 51.4°F10.8°C 87% Calm Calm -- 29.81 in1009.5 mb - 0.02 in0.5 mm 0.02 in0.5 mm
12:45 AM 55.4°F13.0°C 51.3°F10.7°C 86% Calm Calm -- 29.82 in1009.8 mb - 0.00 in0.0 mm 0.00 in0.0 mm
12:30 AM 55.6°F13.1°C 51.5°F10.8°C 86% Calm Calm -- 29.82 in1009.8 mb - 0.00 in0.0 mm 0.00 in0.0 mm
12:15 AM 55.8°F13.2°C 51.3°F10.7°C 85% Calm Calm -- 29.82 in1009.8 mb - 0.00 in0.0 mm 0.00 in0.0 mm
12:00 AM 55.6°F13.1°C 51.1°F10.6°C 85% Calm Calm -- 29.82 in1009.8 mb - 0.00 in0.0 mm 0.00 in0.0 mm